Streator, Illinois
Current Conditions -  °F | °C
As of 9:15 PM on Monday 20 Oct 2014 (Local Time) from KPNT Reporting Station
Scattered Clouds Scattered Clouds  
Wind Chill: 54°   Ceiling: Unl
Heat Index: 54°   Visibility: 10mi
Dew Point: 45°   Wind: 7mph
Humidity: 72%   Direction: 30°NNE
Pressure: 29.99"   Gusts: NA
Location:  41.12°N, 88.83°W
Report Text: KPNT 210215Z AUTO 03006KT 10SM SCT060 12/07 A2999 RMK AO2
Loading
Personal Weather Stations






























Interactive Weather Map
Tropical Storm Tracking
New forecast layout! Learn more

10-Day Weather Forecast

Advertisements
Track Severe Weather on mobile